Saturday, April 19, 2014
09:41 UTC
  |  Log In   |  Register Free
Airport Search:

Raton Municipal/Crews Field Airport
(KRTN)

Raton Municipal/Crews Field Airport Diagram
No Airport Diagram Available

FAA data valid effective April 3, 2014 until May 29, 2014 (unless otherwise noted).

 
 
 
 
 
 
 
 
 
 
 
 
 
 

Current Aviation Weather for Raton Municipal/Crews Field Airport (KRTN)

The most recent METAR observation for KRTN was updated at: 0853 UTC
METAR Summary (Translated METAR)
KRTN
190853Z AUTO 00000KT 10SM CLR 09/04 A3007 RMK AO2 SLP107 T00940039 58007
KTAD
(32 nm NE from KRTN)
190854Z AUTO 24011KT 10SM CLR 13/03 A2999 RMK AO2 SLP085 T01280028 50000
TAF
No TAF information found within 50 nm of KRTN
  Airport Weather Conditions for KRTN

 Current Weather at RTN
49° F
Fair
North winds at 0.0 mph
RTN NOAA Radar

Pressure: 30.07 in
Humidity: 69%
Wind: Calm
Dew Point: 39.0°F
Visibility: 10.00 mi


Airport Weather Forecast for KRTN

Translated METAR and TAF for KRTN
Translated METAR for KRTN (0941 UTC 19 April 2014)
found at http://aviationweather.gov/adds/metars/
 
METAR text: KRTN 190853Z AUTO 00000KT 10SM CLR 09/04 A3007 RMK AO2 SLP107 T00940039 58007
Conditions at: KRTN (RATON , NM, US) observed 0853 UTC 19 April 2014
Temperature: 9.4°C (49°F)
Dewpoint: 3.9°C (39°F) [RH = 68%]
Pressure (altimeter): 30.07 inches Hg (1018.4 mb)
[Sea-level pressure: 1010.7 mb]
Winds: calm
Visibility: 10 or more miles (16+ km)
Ceiling: at least 12,000 feet AGL
Clouds: sky clear below 12,000 feet AGL
Weather: automated observation with no human augmentation;
there may or may not be significant weather present at this time
Translated TAF for KRTN

There is no translated TAF available for this airport

Find All Airport Services Find A Hotel Find A Rental Car Find A Golf Course Find A Restaurant $100 Hamburger



FBO's on the Field
FBO Company Facility Photos Services Transportation Aviation Fuel Prices: Prices include tax
Catering Weather Repair Courtesy Rental Type 100LL JetA JetA+ MOGAS 8087
 
Pegasus Aviation

This FBO has not yet been rated
FS:Phillips66
Last Updated: Mar-20
Login to update fuel prices
SS:
Contact Pegasus AviationMore FBO Information
 
Add another FBO Facility Photos Catering Weather Repair Courtesy Rental Type 100LL JetA JetA+ MOGAS 8087
Services Transportation Aviation Fuel Prices: Prices include tax


GlobalAir.com Airport Resource Center model-print
model-print
model-print
model-print